createdAt,value
2023-01-17T00:02:19.772Z,4.50
2023-01-17T00:05:05.473Z,4.40
2023-01-17T00:07:51.010Z,4.50
2023-01-17T00:10:20.646Z,4.50
2023-01-17T00:12:59.612Z,4.40
2023-01-17T00:15:30.733Z,4.40
2023-01-17T00:17:58.131Z,4.40
2023-01-17T00:20:45.805Z,4.50
2023-01-17T00:23:41.496Z,4.50
2023-01-17T00:26:14.705Z,4.40
2023-01-17T00:28:42.953Z,4.40
2023-01-17T00:31:11.538Z,4.40
2023-01-17T00:33:40.487Z,4.40
2023-01-17T00:36:08.347Z,4.40
2023-01-17T00:38:40.934Z,4.40
2023-01-17T00:41:10.683Z,4.40
2023-01-17T00:43:56.059Z,4.50
2023-01-17T00:46:44.096Z,4.40
2023-01-17T00:49:29.679Z,4.40
2023-01-17T00:52:14.947Z,4.50
2023-01-17T00:55:00.347Z,4.40
2023-01-17T00:57:45.767Z,4.50
2023-01-17T01:00:31.806Z,4.50
2023-01-17T01:03:17.066Z,4.40
2023-01-17T01:06:02.632Z,4.40
2023-01-17T01:08:49.174Z,4.40
2023-01-17T01:11:37.646Z,4.40
2023-01-17T01:14:24.093Z,4.50
2023-01-17T01:17:09.687Z,4.40
2023-01-17T01:19:55.117Z,4.40
2023-01-17T01:22:40.621Z,4.40
2023-01-17T01:25:28.643Z,4.40
2023-01-17T01:28:31.679Z,4.40
2023-01-17T01:31:23.789Z,4.40
2023-01-17T01:33:52.111Z,4.50
2023-01-17T01:36:19.217Z,4.50
2023-01-17T01:38:50.111Z,4.40
2023-01-17T01:41:16.879Z,4.40
2023-01-17T01:43:54.499Z,4.30
2023-01-17T01:46:32.776Z,4.30
2023-01-17T01:49:03.589Z,4.20
2023-01-17T01:51:40.447Z,4.20
2023-01-17T01:54:17.231Z,4.20
2023-01-17T01:56:45.427Z,4.10
2023-01-17T01:59:15.604Z,4.10
2023-01-17T02:01:44.707Z,4.10
2023-01-17T02:04:12.893Z,4.10
2023-01-17T02:06:49.334Z,4.10
2023-01-17T02:09:20.295Z,4.00
2023-01-17T02:11:50.160Z,4.10
2023-01-17T02:14:18.338Z,4.10
2023-01-17T02:17:03.702Z,4.10
2023-01-17T02:20:01.256Z,4.10
2023-01-17T02:23:25.122Z,4.00
2023-01-17T02:25:54.695Z,4.10
2023-01-17T02:28:39.780Z,4.10
2023-01-17T02:31:17.717Z,4.10
2023-01-17T02:34:05.859Z,4.10
2023-01-17T02:36:39.985Z,4.10
2023-01-17T02:39:22.143Z,4.10
2023-01-17T02:42:02.944Z,4.10
2023-01-17T02:44:29.598Z,4.10
2023-01-17T02:46:58.118Z,4.10
2023-01-17T02:49:31.752Z,4.20
2023-01-17T02:52:19.685Z,4.20
2023-01-17T02:54:55.080Z,4.20
2023-01-17T02:57:24.538Z,4.20
2023-01-17T03:00:08.416Z,4.10
2023-01-17T03:02:59.359Z,4.10
2023-01-17T03:05:51.330Z,4.00
2023-01-17T03:08:21.293Z,4.00
2023-01-17T03:10:50.237Z,3.90
2023-01-17T03:13:17.123Z,3.90
2023-01-17T03:15:44.209Z,3.90
2023-01-17T03:18:16.169Z,3.90
2023-01-17T03:20:45.078Z,4.10
2023-01-17T03:23:13.982Z,4.00
2023-01-17T03:25:43.149Z,4.00
2023-01-17T03:28:12.217Z,4.10
2023-01-17T03:30:46.204Z,4.10
2023-01-17T03:33:16.950Z,4.10
2023-01-17T03:35:50.067Z,4.10
2023-01-17T03:38:16.878Z,4.00
2023-01-17T03:40:43.554Z,4.00
2023-01-17T03:43:10.281Z,4.00
2023-01-17T03:45:39.177Z,3.90
2023-01-17T03:48:06.236Z,4.00
2023-01-17T03:50:35.085Z,4.00
2023-01-17T03:53:04.083Z,4.00
2023-01-17T03:55:32.910Z,4.00
2023-01-17T03:57:59.606Z,3.90
2023-01-17T04:00:28.753Z,3.90
2023-01-17T04:02:55.417Z,3.90
2023-01-17T04:05:22.100Z,3.90
2023-01-17T04:07:51.801Z,3.90
2023-01-17T04:10:18.724Z,4.00
2023-01-17T04:12:45.433Z,3.90
2023-01-17T04:15:12.192Z,4.00
2023-01-17T04:17:39.219Z,4.00
2023-01-17T04:20:06.298Z,4.10
2023-01-17T04:22:35.363Z,4.00
2023-01-17T04:25:02.037Z,4.00
2023-01-17T04:27:31.258Z,3.90
2023-01-17T04:29:57.912Z,3.90
2023-01-17T04:32:29.281Z,3.90
2023-01-17T04:34:55.945Z,3.80
2023-01-17T04:37:22.584Z,3.90
2023-01-17T04:39:49.353Z,4.00
2023-01-17T04:42:18.549Z,4.00
2023-01-17T04:44:45.340Z,4.00
2023-01-17T04:47:12.193Z,4.00
2023-01-17T04:49:38.899Z,4.00
2023-01-17T04:52:05.609Z,4.00
2023-01-17T04:54:34.434Z,3.90
2023-01-17T04:57:03.635Z,3.90
2023-01-17T04:59:30.347Z,3.90
2023-01-17T05:01:57.082Z,3.80
2023-01-17T05:04:26.398Z,3.80
2023-01-17T05:06:53.290Z,3.80
2023-01-17T05:09:19.967Z,3.70
2023-01-17T05:11:46.685Z,3.20
2023-01-17T05:14:15.612Z,3.50
2023-01-17T05:16:42.288Z,3.50
2023-01-17T05:19:11.190Z,3.50
2023-01-17T05:21:37.850Z,3.30
2023-01-17T05:24:04.774Z,3.30
2023-01-17T05:26:36.158Z,3.30
2023-01-17T05:29:02.892Z,3.30
2023-01-17T05:31:32.001Z,3.30
2023-01-17T05:33:58.735Z,3.30
2023-01-17T05:36:28.011Z,3.30
2023-01-17T05:38:54.739Z,3.20
2023-01-17T05:41:24.060Z,3.20
2023-01-17T05:43:50.775Z,3.20
2023-01-17T05:46:18.017Z,3.10
2023-01-17T05:48:44.780Z,3.20
2023-01-17T05:51:13.874Z,3.20
2023-01-17T05:53:42.802Z,3.20
2023-01-17T05:56:09.492Z,3.20
2023-01-17T05:58:36.194Z,3.20
2023-01-17T06:01:02.947Z,3.10
2023-01-17T06:03:29.672Z,3.10
2023-01-17T06:05:58.576Z,3.00
2023-01-17T06:08:25.264Z,3.10
2023-01-17T06:10:51.995Z,3.00
2023-01-17T06:13:21.924Z,3.00
2023-01-17T06:15:48.754Z,2.90
2023-01-17T06:18:17.505Z,3.00
2023-01-17T06:20:44.893Z,3.00
2023-01-17T06:23:13.698Z,3.10
2023-01-17T06:25:45.471Z,3.30
2023-01-17T06:28:20.742Z,3.10
2023-01-17T06:30:50.308Z,3.10
2023-01-17T06:33:17.421Z,3.20
2023-01-17T06:35:51.239Z,3.20
2023-01-17T06:38:21.037Z,3.20
2023-01-17T06:40:50.516Z,3.10
2023-01-17T06:43:17.283Z,3.10
2023-01-17T06:45:46.884Z,3.30
2023-01-17T06:48:16.479Z,3.20
2023-01-17T06:50:43.827Z,3.30
2023-01-17T06:53:10.560Z,3.40
2023-01-17T06:55:40.100Z,3.40
2023-01-17T06:58:08.256Z,3.50
2023-01-17T07:00:35.648Z,3.50
2023-01-17T07:03:02.757Z,3.50
2023-01-17T07:05:29.651Z,3.50
2023-01-17T07:08:00.101Z,3.40
2023-01-17T07:10:26.786Z,3.60
2023-01-17T07:12:59.382Z,3.50
2023-01-17T07:15:26.073Z,3.60
2023-01-17T07:17:52.784Z,3.80
2023-01-17T07:20:19.647Z,3.60
2023-01-17T07:22:46.580Z,3.50
2023-01-17T07:25:13.279Z,3.40
2023-01-17T07:27:42.991Z,3.40
2023-01-17T07:30:10.651Z,3.50
2023-01-17T07:32:37.555Z,3.50
2023-01-17T07:35:07.132Z,3.50
2023-01-17T07:37:33.803Z,3.50
2023-01-17T07:40:02.432Z,3.50
2023-01-17T07:42:29.184Z,3.60
2023-01-17T07:44:55.834Z,3.60
2023-01-17T07:47:24.713Z,3.40
2023-01-17T07:49:54.823Z,3.40
2023-01-17T07:52:21.535Z,3.40
2023-01-17T07:54:48.192Z,3.40
2023-01-17T07:57:14.847Z,3.40
2023-01-17T07:59:41.623Z,3.30
2023-01-17T08:02:19.063Z,3.30
2023-01-17T08:04:48.468Z,3.20
2023-01-17T08:07:15.664Z,3.10
2023-01-17T08:09:49.543Z,3.10
2023-01-17T08:12:18.930Z,3.10
2023-01-17T08:14:45.638Z,3.10
2023-01-17T08:17:17.099Z,3.00
2023-01-17T08:19:44.755Z,3.00
2023-01-17T08:22:13.712Z,2.90
2023-01-17T08:24:40.451Z,2.90
2023-01-17T08:27:09.137Z,2.90
2023-01-17T08:29:41.346Z,2.90
2023-01-17T08:32:12.817Z,3.00
2023-01-17T08:34:39.512Z,3.00
2023-01-17T08:37:06.248Z,3.10
2023-01-17T08:39:33.159Z,3.10
2023-01-17T08:41:59.856Z,3.20
2023-01-17T08:44:29.005Z,3.20
2023-01-17T08:46:55.734Z,3.20
2023-01-17T08:49:22.498Z,3.30
2023-01-17T08:51:49.173Z,3.40
2023-01-17T08:54:16.600Z,3.50
2023-01-17T08:56:43.346Z,3.60
2023-01-17T08:59:13.164Z,3.70
2023-01-17T09:01:45.843Z,3.70
2023-01-17T09:04:13.267Z,3.80
2023-01-17T09:06:42.640Z,3.90
2023-01-17T09:09:13.658Z,4.10
2023-01-17T09:11:40.373Z,4.20
2023-01-17T09:14:11.146Z,4.30
2023-01-17T09:16:37.836Z,4.40
2023-01-17T09:19:04.619Z,4.60
2023-01-17T09:21:31.361Z,4.70
2023-01-17T09:23:58.079Z,4.80
2023-01-17T09:26:30.771Z,4.90
2023-01-17T09:28:58.642Z,4.90
2023-01-17T09:31:28.233Z,5.00
2023-01-17T09:33:56.571Z,5.10
2023-01-17T09:36:24.121Z,5.10
2023-01-17T09:38:56.746Z,5.10
2023-01-17T09:41:33.647Z,5.00
2023-01-17T09:44:06.842Z,4.90
2023-01-17T09:46:39.458Z,4.90
2023-01-17T09:49:33.378Z,4.80
2023-01-17T09:52:00.861Z,4.80
2023-01-17T09:54:36.069Z,4.80
2023-01-17T09:57:18.958Z,4.80
2023-01-17T10:00:04.048Z,4.80
2023-01-17T10:02:52.682Z,4.80
2023-01-17T10:05:50.228Z,4.70
2023-01-17T10:08:41.502Z,4.50
2023-01-17T10:11:18.049Z,4.50
2023-01-17T10:14:25.661Z,4.40
2023-01-17T10:17:13.644Z,4.40
2023-01-17T10:19:57.253Z,4.30
2023-01-17T10:23:08.158Z,4.40
2023-01-17T10:25:49.967Z,4.40
2023-01-17T10:28:22.624Z,4.50
2023-01-17T10:30:56.265Z,4.60
2023-01-17T10:33:31.385Z,4.70
2023-01-17T10:36:07.459Z,4.80
2023-01-17T10:38:37.291Z,4.90
2023-01-17T10:41:22.197Z,5.00
2023-01-17T10:44:06.451Z,4.90
2023-01-17T10:46:45.226Z,4.80
2023-01-17T10:49:18.850Z,5.00
2023-01-17T10:52:00.041Z,5.00
2023-01-17T10:54:53.491Z,5.00
2023-01-17T10:57:25.745Z,4.90
2023-01-17T11:00:00.217Z,4.90
2023-01-17T11:02:43.031Z,4.90
2023-01-17T11:05:24.896Z,4.80
2023-01-17T11:08:03.641Z,4.70
2023-01-17T11:10:59.201Z,4.70
2023-01-17T11:13:25.944Z,4.60
2023-01-17T11:16:02.120Z,4.40
2023-01-17T11:18:31.622Z,4.50
2023-01-17T11:21:17.100Z,4.50
2023-01-17T11:23:56.774Z,4.50
2023-01-17T11:26:31.392Z,4.50
2023-01-17T11:29:16.445Z,4.50
2023-01-17T11:31:43.148Z,4.50
2023-01-17T11:34:24.886Z,4.50
2023-01-17T11:37:18.092Z,4.50
2023-01-17T11:39:48.067Z,4.50
2023-01-17T11:42:35.378Z,4.50
2023-01-17T11:45:28.324Z,4.40
2023-01-17T11:48:12.981Z,4.50
2023-01-17T11:50:58.364Z,4.50
2023-01-17T11:53:26.822Z,4.40
2023-01-17T11:56:07.516Z,4.40
2023-01-17T11:58:39.891Z,4.60
2023-01-17T12:01:27.734Z,4.60
2023-01-17T12:03:54.511Z,4.70
2023-01-17T12:06:47.841Z,4.80
2023-01-17T12:09:36.936Z,4.90
2023-01-17T12:12:22.881Z,5.00
2023-01-17T12:14:55.926Z,5.00
2023-01-17T12:17:51.527Z,5.00
2023-01-17T12:20:41.386Z,5.10
2023-01-17T12:23:20.986Z,5.20
2023-01-17T12:26:09.888Z,5.30
2023-01-17T12:28:54.775Z,5.30
2023-01-17T12:31:46.833Z,5.20
2023-01-17T12:34:47.081Z,5.10
2023-01-17T12:37:13.755Z,5.20
2023-01-17T12:39:46.621Z,5.30
2023-01-17T12:42:22.413Z,5.30
2023-01-17T12:45:07.259Z,5.20
2023-01-17T12:47:42.664Z,5.30
2023-01-17T12:50:15.188Z,5.30
2023-01-17T12:52:59.335Z,5.20
2023-01-17T12:55:46.431Z,5.00
2023-01-17T12:58:19.934Z,4.90
2023-01-17T13:00:56.768Z,5.00
2023-01-17T13:03:37.543Z,5.00
2023-01-17T13:06:07.183Z,5.10
2023-01-17T13:08:41.283Z,5.20
2023-01-17T13:11:28.242Z,5.30
2023-01-17T13:13:59.792Z,5.50
2023-01-17T13:16:29.535Z,5.60
2023-01-17T13:19:03.790Z,5.50
2023-01-17T13:21:33.056Z,5.60
2023-01-17T13:24:00.146Z,5.60
2023-01-17T13:26:52.050Z,5.60
2023-01-17T13:29:34.004Z,5.60
2023-01-17T13:32:44.712Z,5.50
2023-01-17T13:35:41.957Z,5.60
2023-01-17T13:38:16.871Z,5.50
2023-01-17T13:40:54.099Z,5.50
2023-01-17T13:43:33.848Z,5.50
2023-01-17T13:46:05.567Z,5.40
2023-01-17T13:48:34.744Z,5.30
2023-01-17T13:51:09.198Z,5.20
2023-01-17T13:53:36.750Z,5.10
2023-01-17T13:56:14.134Z,5.10
2023-01-17T13:58:56.845Z,5.10
2023-01-17T14:01:23.739Z,5.00
2023-01-17T14:03:50.722Z,4.90
2023-01-17T14:06:33.574Z,5.00
2023-01-17T14:09:07.983Z,5.00
2023-01-17T14:11:50.159Z,4.90
2023-01-17T14:14:39.832Z,4.90
2023-01-17T14:17:28.224Z,4.80
2023-01-17T14:20:03.404Z,4.80
2023-01-17T14:22:35.455Z,4.90
2023-01-17T14:25:17.485Z,4.90
2023-01-17T14:27:51.107Z,4.90
2023-01-17T14:30:18.186Z,4.80
2023-01-17T14:33:03.077Z,4.80
2023-01-17T14:35:34.419Z,4.90
2023-01-17T14:38:07.815Z,4.90
2023-01-17T14:40:38.372Z,5.00
2023-01-17T14:43:12.924Z,5.10
2023-01-17T14:45:41.134Z,5.10
2023-01-17T14:48:19.871Z,5.10
2023-01-17T14:50:49.195Z,5.00
2023-01-17T14:53:20.343Z,5.00
2023-01-17T14:55:49.927Z,4.90
2023-01-17T14:58:18.363Z,4.90
2023-01-17T15:00:46.153Z,5.00
2023-01-17T15:03:16.063Z,4.90
2023-01-17T15:05:49.827Z,4.90
2023-01-17T15:08:22.064Z,4.90
2023-01-17T15:10:56.682Z,4.90
2023-01-17T15:13:43.399Z,4.80
2023-01-17T15:16:23.535Z,4.80
2023-01-17T15:18:51.195Z,4.80
2023-01-17T15:21:23.557Z,4.70
2023-01-17T15:23:56.377Z,4.60
2023-01-17T15:26:28.245Z,4.60
2023-01-17T15:29:05.353Z,4.60
2023-01-17T15:31:52.459Z,4.50
2023-01-17T15:34:30.005Z,4.50
2023-01-17T15:37:00.528Z,4.40
2023-01-17T15:39:31.109Z,4.30
2023-01-17T15:42:00.443Z,4.30
2023-01-17T15:44:46.825Z,4.30
2023-01-17T15:47:34.281Z,4.30
2023-01-17T15:50:05.250Z,4.20
2023-01-17T15:52:32.091Z,4.10
2023-01-17T15:55:11.427Z,4.10
2023-01-17T15:57:38.839Z,4.00
2023-01-17T16:00:20.942Z,4.00
2023-01-17T16:03:01.024Z,3.90
2023-01-17T16:05:30.759Z,3.80
2023-01-17T16:08:01.540Z,3.80
2023-01-17T16:10:35.580Z,3.80
2023-01-17T16:13:03.851Z,3.80
2023-01-17T16:15:35.214Z,3.80
2023-01-17T16:18:03.969Z,3.80
2023-01-17T16:20:39.298Z,3.80
2023-01-17T16:23:06.284Z,3.80
2023-01-17T16:25:33.024Z,3.80
2023-01-17T16:28:02.354Z,3.70
2023-01-17T16:30:34.829Z,3.60
2023-01-17T16:33:04.056Z,3.60
2023-01-17T16:35:33.127Z,3.60
2023-01-17T16:38:08.605Z,3.50
2023-01-17T16:40:41.113Z,3.50
2023-01-17T16:43:12.110Z,3.40
2023-01-17T16:45:47.502Z,3.40
2023-01-17T16:48:14.721Z,3.40
2023-01-17T16:50:48.035Z,3.30
2023-01-17T16:53:22.566Z,3.30
2023-01-17T16:55:52.871Z,3.20
2023-01-17T16:58:20.334Z,3.10
2023-01-17T17:00:47.385Z,3.10
2023-01-17T17:03:19.005Z,3.10
2023-01-17T17:05:56.372Z,3.10
2023-01-17T17:08:29.388Z,3.10
2023-01-17T17:11:14.250Z,3.10
2023-01-17T17:13:42.877Z,3.80
2023-01-17T17:16:20.615Z,3.10
2023-01-17T17:43:49.605Z,2.60
2023-01-17T17:46:16.431Z,2.50
2023-01-17T17:48:45.339Z,2.40
2023-01-17T17:51:38.032Z,2.40
2023-01-17T17:54:09.873Z,2.30
2023-01-17T17:56:39.810Z,2.20
2023-01-17T17:59:12.583Z,2.30
2023-01-17T18:01:41.527Z,2.30
2023-01-17T18:04:09.572Z,2.30
2023-01-17T18:06:38.481Z,2.10
2023-01-17T18:09:06.955Z,2.20
2023-01-17T18:11:34.348Z,2.00
2023-01-17T18:14:02.667Z,2.10
2023-01-17T18:16:41.629Z,2.00
2023-01-17T18:19:13.471Z,1.90
2023-01-17T18:21:40.536Z,1.90
2023-01-17T18:24:12.906Z,1.90
2023-01-17T18:26:45.836Z,1.80
2023-01-17T18:29:15.844Z,1.80
2023-01-17T18:31:49.992Z,1.80
2023-01-17T18:34:21.219Z,1.60
2023-01-17T18:36:47.967Z,1.60
2023-01-17T18:39:17.499Z,1.60
2023-01-17T18:41:44.560Z,1.60
2023-01-17T18:44:11.729Z,1.60
2023-01-17T18:46:40.143Z,1.50
2023-01-17T18:49:07.027Z,1.50
2023-01-17T18:51:36.596Z,1.50
2023-01-17T18:54:06.889Z,1.50
2023-01-17T18:56:34.685Z,1.50
2023-01-17T18:59:05.695Z,1.60
2023-01-17T19:01:35.761Z,1.50
2023-01-17T19:04:06.955Z,1.90
2023-01-17T19:06:38.249Z,1.50
2023-01-17T19:09:07.245Z,1.50
2023-01-17T19:11:36.545Z,1.50
2023-01-17T19:14:04.244Z,1.40
2023-01-17T19:16:34.983Z,1.50
2023-01-17T20:56:25.983Z,0.40
2023-01-17T20:58:58.747Z,0.40
2023-01-17T21:01:25.587Z,0.40
2023-01-17T21:03:53.922Z,0.30
2023-01-17T21:06:24.959Z,0.30
2023-01-17T21:08:52.490Z,0.20
2023-01-17T21:11:23.889Z,0.20
2023-01-17T21:13:51.765Z,0.30
2023-01-17T21:16:21.071Z,0.30
2023-01-17T21:18:48.774Z,0.30
2023-01-17T21:21:21.999Z,0.30
2023-01-17T21:23:50.249Z,0.20
2023-01-17T21:26:21.099Z,0.30
2023-01-17T21:28:49.301Z,0.30
2023-01-17T21:31:23.334Z,0.20
2023-01-17T21:33:56.192Z,0.20
2023-01-17T21:36:26.368Z,0.20
2023-01-17T21:38:54.553Z,0.20
2023-01-17T21:41:25.679Z,0.10
2023-01-17T21:44:00.902Z,0.10
2023-01-17T21:46:30.427Z,0.10
2023-01-17T21:48:59.601Z,0.10
2023-01-17T21:51:46.264Z,0.10
2023-01-17T21:54:13.111Z,0.10
2023-01-17T21:56:58.367Z,0.00
2023-01-17T21:59:25.149Z,0.00
2023-01-17T22:01:54.065Z,0.00
2023-01-17T22:04:24.548Z,0.00
2023-01-17T22:06:53.616Z,0.00
2023-01-17T22:09:22.798Z,0.00
2023-01-17T22:11:49.444Z,0.10
2023-01-17T22:14:16.107Z,0.10
2023-01-17T22:16:45.903Z,0.10
2023-01-17T22:19:12.560Z,0.20
2023-01-17T22:21:39.218Z,0.20
2023-01-17T22:24:09.462Z,0.20
2023-01-17T22:26:40.464Z,0.30
2023-01-17T22:29:10.555Z,0.20
2023-01-17T22:31:37.475Z,0.20
2023-01-17T22:34:05.141Z,0.20
2023-01-17T22:36:32.846Z,0.20
2023-01-17T22:38:59.720Z,0.20
2023-01-17T22:41:29.813Z,0.30
2023-01-17T22:43:59.097Z,0.50
2023-01-17T22:46:31.055Z,0.60
2023-01-17T22:49:00.376Z,0.70
2023-01-17T22:51:30.819Z,0.70
2023-01-17T22:53:59.915Z,0.70
2023-01-17T22:56:32.097Z,0.70
2023-01-17T22:59:02.292Z,0.70
2023-01-17T23:01:29.800Z,0.80
2023-01-17T23:04:01.827Z,0.70
2023-01-17T23:06:37.174Z,0.60
2023-01-17T23:09:13.382Z,0.60
2023-01-17T23:11:43.322Z,0.60
2023-01-17T23:14:22.810Z,0.50
2023-01-17T23:17:08.227Z,0.40
2023-01-17T23:19:40.623Z,0.40
2023-01-17T23:22:16.193Z,0.40
2023-01-17T23:25:01.879Z,0.30
2023-01-17T23:28:04.460Z,0.30
2023-01-17T23:30:40.191Z,0.40
2023-01-17T23:33:13.286Z,0.40
2023-01-17T23:35:47.292Z,0.30
2023-01-17T23:38:30.501Z,0.20
2023-01-17T23:41:20.112Z,0.10
2023-01-17T23:43:54.215Z,0.10
2023-01-17T23:46:24.474Z,0.10
2023-01-17T23:48:51.503Z,0.10
2023-01-17T23:51:18.452Z,0.20
2023-01-17T23:53:47.650Z,0.20
2023-01-17T23:56:20.727Z,0.10
2023-01-17T23:58:47.706Z,0.10
